createdAt,value
2018-03-30T00:00:55.143Z,5.13
2018-03-30T00:03:24.405Z,5.09
2018-03-30T00:05:53.601Z,5.11
2018-03-30T00:08:22.846Z,5.08
2018-03-30T00:10:54.818Z,5.02
2018-03-30T00:13:24.984Z,5.04
2018-03-30T00:15:54.778Z,5.03
2018-03-30T00:18:24.006Z,5.06
2018-03-30T00:20:53.977Z,5.09
2018-03-30T00:23:23.254Z,5.10
2018-03-30T00:25:52.502Z,5.06
2018-03-30T00:28:21.711Z,5.02
2018-03-30T00:30:51.696Z,5.05
2018-03-30T00:33:20.904Z,5.10
2018-03-30T00:35:50.094Z,5.14
2018-03-30T00:38:19.334Z,5.10
2018-03-30T00:40:48.732Z,5.14
2018-03-30T00:43:17.957Z,5.08
2018-03-30T00:45:47.158Z,5.14
2018-03-30T00:48:16.339Z,5.09
2018-03-30T00:50:46.305Z,5.14
2018-03-30T00:53:34.043Z,5.18
2018-03-30T00:56:04.051Z,5.17
2018-03-30T00:58:33.263Z,5.19
2018-03-30T01:01:03.262Z,5.22
2018-03-30T01:03:33.282Z,5.16
2018-03-30T01:06:02.508Z,5.17
2018-03-30T01:08:31.751Z,5.17
2018-03-30T01:11:00.962Z,5.22
2018-03-30T01:13:30.140Z,5.24
2018-03-30T01:15:59.406Z,5.27
2018-03-30T01:18:28.592Z,5.31
2018-03-30T01:20:57.809Z,5.36
2018-03-30T01:23:28.010Z,5.30
2018-03-30T01:25:57.987Z,5.34
2018-03-30T01:28:27.292Z,5.38
2018-03-30T01:30:56.622Z,5.40
2018-03-30T01:33:26.625Z,5.42
2018-03-30T01:35:56.609Z,5.48
2018-03-30T01:38:25.826Z,5.49
2018-03-30T01:40:55.067Z,5.52
2018-03-30T01:43:24.321Z,5.54
2018-03-30T01:45:53.519Z,5.53
2018-03-30T01:48:22.748Z,5.55
2018-03-30T01:50:52.732Z,5.56
2018-03-30T01:53:21.929Z,5.61
2018-03-30T01:55:51.148Z,5.65
2018-03-30T01:58:21.122Z,5.68
2018-03-30T02:00:50.322Z,5.71
2018-03-30T02:03:19.522Z,5.73
2018-03-30T02:05:49.518Z,5.77
2018-03-30T02:08:18.730Z,5.82
2018-03-30T02:10:48.698Z,5.85
2018-03-30T02:13:18.689Z,5.84
2018-03-30T02:15:47.872Z,5.84
2018-03-30T02:18:17.101Z,5.88
2018-03-30T02:20:46.335Z,5.88
2018-03-30T02:23:15.819Z,5.92
2018-03-30T02:25:45.152Z,5.90
2018-03-30T02:28:14.364Z,5.86
2018-03-30T02:30:43.601Z,5.87
2018-03-30T02:33:13.608Z,5.92
2018-03-30T02:35:42.825Z,5.97
2018-03-30T02:38:12.803Z,5.92
2018-03-30T02:40:42.004Z,5.98
2018-03-30T02:43:11.212Z,5.98
2018-03-30T02:45:40.428Z,6.04
2018-03-30T02:48:10.422Z,6.02
2018-03-30T02:50:40.404Z,6.09
2018-03-30T02:53:09.632Z,6.13
2018-03-30T02:55:38.869Z,6.15
2018-03-30T02:58:08.075Z,6.18
2018-03-30T03:00:37.345Z,6.21
2018-03-30T03:03:07.417Z,6.17
2018-03-30T03:05:36.672Z,6.19
2018-03-30T03:08:05.918Z,6.23
2018-03-30T03:10:35.209Z,6.29
2018-03-30T03:13:04.450Z,6.29
2018-03-30T03:15:33.627Z,6.30
2018-03-30T03:18:02.879Z,6.28
2018-03-30T03:20:32.076Z,6.31
2018-03-30T03:23:01.290Z,6.31
2018-03-30T03:25:30.612Z,6.29
2018-03-30T03:27:59.805Z,6.22
2018-03-30T03:30:29.012Z,6.28
2018-03-30T03:32:58.323Z,6.25
2018-03-30T03:35:27.543Z,6.29
2018-03-30T03:37:56.741Z,6.33
2018-03-30T03:40:26.716Z,6.23
2018-03-30T03:42:55.936Z,6.31
2018-03-30T03:45:25.167Z,6.35
2018-03-30T03:47:54.366Z,6.35
2018-03-30T03:50:23.602Z,6.39
2018-03-30T03:52:52.815Z,6.39
2018-03-30T03:55:22.024Z,6.38
2018-03-30T03:57:51.270Z,6.41
2018-03-30T04:00:20.509Z,6.45
2018-03-30T04:02:49.720Z,6.45
2018-03-30T04:05:19.708Z,6.48
2018-03-30T04:07:49.009Z,6.48
2018-03-30T04:10:18.312Z,6.51
2018-03-30T04:12:47.495Z,6.57
2018-03-30T04:15:16.711Z,6.53
2018-03-30T04:17:45.939Z,6.50
2018-03-30T04:20:15.897Z,6.49
2018-03-30T04:22:45.119Z,6.46
2018-03-30T04:25:14.344Z,6.51
2018-03-30T04:27:44.328Z,6.53
2018-03-30T04:30:13.770Z,6.56
2018-03-30T04:32:43.232Z,6.55
2018-03-30T04:35:12.447Z,6.60
2018-03-30T04:37:42.531Z,6.64
2018-03-30T04:40:11.751Z,6.70
2018-03-30T04:42:41.787Z,6.70
2018-03-30T04:45:10.979Z,6.72
2018-03-30T04:47:40.962Z,6.71
2018-03-30T04:50:10.927Z,6.74
2018-03-30T04:52:40.932Z,6.71
2018-03-30T04:55:10.162Z,6.71
2018-03-30T04:57:39.364Z,6.69
2018-03-30T05:00:08.590Z,6.68
2018-03-30T05:02:37.827Z,6.69
2018-03-30T05:05:07.818Z,6.71
2018-03-30T05:07:37.140Z,6.73
2018-03-30T05:10:07.122Z,6.75
2018-03-30T05:12:37.148Z,6.71
2018-03-30T05:15:06.409Z,6.72
2018-03-30T05:17:35.610Z,6.69
2018-03-30T05:20:04.844Z,6.72
2018-03-30T05:22:34.035Z,6.73
2018-03-30T05:25:03.243Z,6.75
2018-03-30T05:27:32.451Z,6.77
2018-03-30T05:30:02.779Z,6.78
2018-03-30T05:32:32.743Z,6.78
2018-03-30T05:35:02.005Z,6.78
2018-03-30T05:37:32.038Z,6.78
2018-03-30T05:40:01.297Z,6.79
2018-03-30T05:42:30.496Z,6.80
2018-03-30T05:44:59.746Z,6.82
2018-03-30T05:47:28.936Z,6.85
2018-03-30T05:49:58.155Z,6.87
2018-03-30T05:52:27.352Z,6.91
2018-03-30T05:54:57.367Z,6.93
2018-03-30T05:57:27.371Z,6.97
2018-03-30T05:59:56.612Z,7.00
2018-03-30T06:02:25.871Z,7.01
2018-03-30T06:04:55.103Z,7.06
2018-03-30T06:07:24.431Z,7.05
2018-03-30T06:09:54.394Z,7.08
2018-03-30T06:12:23.659Z,7.04
2018-03-30T06:14:52.944Z,7.00
2018-03-30T06:17:22.159Z,7.09
2018-03-30T06:19:52.178Z,7.17
2018-03-30T06:22:21.494Z,7.20
2018-03-30T06:24:50.759Z,7.24
2018-03-30T06:27:20.791Z,7.20
2018-03-30T06:29:50.034Z,7.26
2018-03-30T06:32:19.413Z,7.30
2018-03-30T06:34:48.561Z,7.33
2018-03-30T06:37:17.830Z,7.37
2018-03-30T06:39:47.014Z,7.42
2018-03-30T06:42:16.250Z,7.42
2018-03-30T06:44:45.446Z,7.47
2018-03-30T06:47:14.739Z,7.54
2018-03-30T06:49:43.953Z,7.61
2018-03-30T06:52:13.271Z,7.73
2018-03-30T06:54:43.380Z,7.84
2018-03-30T06:57:12.575Z,7.98
2018-03-30T06:59:42.584Z,8.10
2018-03-30T07:02:12.802Z,8.21
2018-03-30T07:04:42.880Z,8.37
2018-03-30T07:07:12.058Z,8.48
2018-03-30T07:09:41.274Z,8.58
2018-03-30T07:12:10.463Z,8.68
2018-03-30T07:14:39.688Z,8.76
2018-03-30T07:17:09.311Z,8.90
2018-03-30T07:19:38.539Z,9.05
2018-03-30T07:22:07.756Z,9.13
2018-03-30T07:24:37.214Z,9.21
2018-03-30T07:27:06.410Z,9.32
2018-03-30T07:29:35.620Z,9.43
2018-03-30T07:32:05.597Z,9.48
2018-03-30T07:34:34.821Z,9.61
2018-03-30T07:37:04.794Z,9.70
2018-03-30T07:39:34.039Z,9.76
2018-03-30T07:42:03.348Z,9.78
2018-03-30T07:44:33.638Z,9.91
2018-03-30T07:47:02.908Z,9.99
2018-03-30T07:49:32.107Z,10.07
2018-03-30T07:52:01.343Z,10.13
2018-03-30T07:54:30.589Z,10.22
2018-03-30T07:56:59.821Z,10.28
2018-03-30T07:59:29.034Z,10.38
2018-03-30T08:01:58.258Z,10.40
2018-03-30T08:04:28.219Z,10.40
2018-03-30T08:06:57.503Z,10.52
2018-03-30T08:09:26.702Z,10.65
2018-03-30T08:11:55.908Z,10.79
2018-03-30T08:14:25.430Z,10.92
2018-03-30T08:16:54.598Z,11.03
2018-03-30T08:19:23.802Z,11.16
2018-03-30T08:21:53.982Z,11.33
2018-03-30T08:24:23.958Z,11.50
2018-03-30T08:26:53.177Z,11.55
2018-03-30T08:29:23.240Z,11.63
2018-03-30T08:31:53.246Z,11.69
2018-03-30T08:34:23.230Z,11.82
2018-03-30T08:36:52.456Z,11.91
2018-03-30T08:39:21.670Z,12.04
2018-03-30T08:41:50.880Z,12.17
2018-03-30T08:44:20.150Z,12.22
2018-03-30T08:46:50.120Z,12.32
2018-03-30T08:49:19.408Z,12.39
2018-03-30T08:51:48.617Z,12.44
2018-03-30T08:54:18.139Z,12.48
2018-03-30T08:56:49.110Z,12.48
2018-03-30T08:59:19.095Z,12.50
2018-03-30T09:01:49.113Z,12.56
2018-03-30T09:04:18.357Z,12.68
2018-03-30T09:06:47.533Z,12.79
2018-03-30T09:09:16.764Z,12.89
2018-03-30T09:11:45.993Z,12.97
2018-03-30T09:16:50.510Z,12.99
2018-03-30T09:19:19.794Z,13.04
2018-03-30T09:21:49.001Z,13.09
2018-03-30T09:24:18.201Z,13.17
2018-03-30T09:26:47.440Z,13.29
2018-03-30T09:29:16.731Z,13.39
2018-03-30T09:31:46.742Z,13.48
2018-03-30T09:34:15.945Z,13.42
2018-03-30T09:36:45.199Z,13.43
2018-03-30T09:39:14.426Z,13.46
2018-03-30T09:41:43.662Z,13.56
2018-03-30T09:44:13.663Z,13.61
2018-03-30T09:46:42.922Z,13.59
2018-03-30T09:49:12.145Z,13.63
2018-03-30T09:51:41.402Z,13.62
2018-03-30T09:54:10.618Z,13.63
2018-03-30T09:56:39.862Z,13.65
2018-03-30T09:59:09.844Z,13.68
2018-03-30T10:01:39.219Z,13.63
2018-03-30T10:04:09.438Z,13.64
2018-03-30T10:06:38.699Z,13.82
2018-03-30T10:09:07.940Z,13.96
2018-03-30T10:11:37.147Z,13.94
2018-03-30T10:14:06.355Z,13.87
2018-03-30T10:16:35.579Z,13.81
2018-03-30T10:19:05.600Z,13.98
2018-03-30T10:21:35.597Z,14.02
2018-03-30T10:24:04.819Z,13.96
2018-03-30T10:26:34.839Z,14.03
2018-03-30T10:29:04.068Z,14.19
2018-03-30T10:31:33.299Z,14.18
2018-03-30T10:34:02.542Z,14.14
2018-03-30T10:36:31.779Z,14.18
2018-03-30T10:39:01.085Z,14.31
2018-03-30T10:41:30.338Z,14.36
2018-03-30T10:43:59.578Z,14.32
2018-03-30T10:46:28.833Z,14.30
2018-03-30T10:48:58.065Z,14.24
2018-03-30T10:51:27.612Z,14.30
2018-03-30T10:53:57.625Z,14.37
2018-03-30T10:56:26.839Z,14.41
2018-03-30T10:58:56.835Z,14.39
2018-03-30T11:01:26.810Z,14.48
2018-03-30T11:03:56.046Z,14.63
2018-03-30T11:06:26.080Z,14.74
2018-03-30T11:08:56.097Z,14.79
2018-03-30T11:11:26.086Z,14.74
2018-03-30T11:13:55.318Z,14.84
2018-03-30T11:16:24.552Z,14.91
2018-03-30T11:18:53.821Z,14.95
2018-03-30T11:21:23.055Z,14.93
2018-03-30T11:23:52.327Z,14.91
2018-03-30T11:26:21.556Z,14.93
2018-03-30T11:28:50.814Z,15.01
2018-03-30T11:31:20.077Z,14.89
2018-03-30T11:33:49.321Z,14.92
2018-03-30T11:36:18.603Z,14.90
2018-03-30T11:38:47.816Z,14.86
2018-03-30T11:41:17.086Z,14.87
2018-03-30T11:43:47.106Z,14.85
2018-03-30T11:46:16.313Z,14.89
2018-03-30T11:48:46.280Z,14.95
2018-03-30T11:51:15.531Z,14.87
2018-03-30T11:53:44.776Z,14.87
2018-03-30T11:56:14.002Z,14.95
2018-03-30T11:58:44.089Z,15.06
2018-03-30T12:01:14.115Z,15.15
2018-03-30T12:03:44.136Z,15.14
2018-03-30T12:06:13.377Z,15.13
2018-03-30T12:08:42.583Z,14.99
2018-03-30T12:11:11.806Z,14.91
2018-03-30T12:13:41.011Z,14.81
2018-03-30T12:16:10.237Z,14.86
2018-03-30T12:18:39.474Z,14.88
2018-03-30T12:21:08.690Z,14.93
2018-03-30T12:23:37.943Z,14.99
2018-03-30T12:26:07.926Z,15.06
2018-03-30T12:28:37.155Z,15.13
2018-03-30T12:31:06.353Z,15.07
2018-03-30T12:33:36.338Z,15.07
2018-03-30T12:36:05.552Z,15.05
2018-03-30T12:38:34.797Z,15.04
2018-03-30T12:41:04.081Z,15.06
2018-03-30T12:43:34.387Z,15.08
2018-03-30T12:46:04.890Z,15.11
2018-03-30T12:48:34.689Z,15.08
2018-03-30T12:51:05.078Z,15.10
2018-03-30T12:53:36.444Z,15.13
2018-03-30T12:56:05.645Z,15.09
2018-03-30T12:58:34.871Z,15.03
2018-03-30T13:01:04.074Z,14.98
2018-03-30T13:03:33.318Z,15.01
2018-03-30T13:06:02.529Z,15.05
2018-03-30T13:08:32.609Z,15.03
2018-03-30T13:11:02.600Z,15.02
2018-03-30T13:13:32.609Z,15.08
2018-03-30T13:16:01.850Z,15.20
2018-03-30T13:18:31.039Z,15.20
2018-03-30T13:21:01.004Z,15.15
2018-03-30T13:23:30.242Z,15.10
2018-03-30T13:26:00.306Z,15.13
2018-03-30T13:28:29.676Z,15.15
2018-03-30T13:30:58.919Z,15.09
2018-03-30T13:33:28.144Z,15.08
2018-03-30T13:35:57.393Z,15.05
2018-03-30T13:38:26.607Z,15.08
2018-03-30T13:40:55.872Z,15.11
2018-03-30T13:43:25.136Z,15.15
2018-03-30T13:45:54.397Z,15.14
2018-03-30T13:48:23.631Z,15.19
2018-03-30T13:51:10.895Z,15.20
2018-03-30T13:53:43.020Z,15.27
2018-03-30T13:56:12.992Z,15.29
2018-03-30T13:58:47.643Z,15.30
2018-03-30T14:01:31.206Z,15.33
2018-03-30T14:04:11.547Z,15.29
2018-03-30T14:06:44.194Z,15.35
2018-03-30T14:09:31.969Z,15.37
2018-03-30T14:12:04.471Z,15.29
2018-03-30T14:14:33.728Z,15.25
2018-03-30T14:30:50.307Z,15.30
2018-03-30T14:33:20.318Z,15.22
2018-03-30T14:35:58.887Z,15.17
2018-03-30T14:38:46.577Z,15.22
2018-03-30T14:41:16.586Z,15.16
2018-03-30T14:43:46.541Z,15.13
2018-03-30T14:46:23.960Z,15.12
2018-03-30T14:48:55.641Z,15.12
2018-03-30T14:51:36.469Z,15.14
2018-03-30T14:54:08.959Z,15.13
2018-03-30T14:56:49.958Z,15.00
2018-03-30T14:59:25.091Z,14.92
2018-03-30T15:02:04.931Z,14.84
2018-03-30T15:05:00.887Z,14.77
2018-03-30T15:07:30.765Z,14.75
2018-03-30T15:10:34.206Z,14.77
2018-03-30T15:13:08.907Z,14.70
2018-03-30T15:16:00.502Z,14.66
2018-03-30T15:18:34.740Z,14.63
2018-03-30T15:34:39.918Z,14.44
2018-03-30T15:37:16.576Z,14.40
2018-03-30T15:39:56.543Z,14.39
2018-03-30T15:42:35.924Z,14.44
2018-03-30T15:45:28.387Z,14.38
2018-03-30T15:47:57.657Z,14.36
2018-03-30T15:50:26.882Z,14.27
2018-03-30T15:52:56.093Z,14.31
2018-03-30T15:55:25.325Z,14.33
2018-03-30T15:57:54.550Z,14.30
2018-03-30T16:00:23.791Z,14.33
2018-03-30T16:02:53.885Z,14.28
2018-03-30T16:05:23.104Z,14.24
2018-03-30T16:07:52.306Z,14.25
2018-03-30T16:10:23.071Z,14.25
2018-03-30T16:12:53.265Z,14.27
2018-03-30T16:15:22.519Z,14.26
2018-03-30T16:17:51.730Z,14.21
2018-03-30T16:20:20.852Z,14.15
2018-03-30T16:22:49.292Z,14.09
2018-03-30T16:25:17.661Z,14.06
2018-03-30T16:27:46.099Z,14.06
2018-03-30T16:30:15.232Z,14.07
2018-03-30T16:32:43.643Z,14.03
2018-03-30T16:35:12.014Z,13.97
2018-03-30T16:37:40.368Z,13.96
2018-03-30T16:40:08.768Z,13.86
2018-03-30T16:42:37.182Z,13.82
2018-03-30T16:45:06.360Z,13.85
2018-03-30T16:47:34.730Z,13.88
2018-03-30T16:50:03.206Z,13.82
2018-03-30T16:52:31.543Z,13.82
2018-03-30T16:54:59.934Z,13.83
2018-03-30T16:57:28.301Z,13.74
2018-03-30T16:59:56.690Z,13.69
2018-03-30T17:02:25.047Z,13.67
2018-03-30T17:04:53.441Z,13.66
2018-03-30T17:07:21.778Z,13.65
2018-03-30T17:09:50.926Z,13.59
2018-03-30T17:12:19.300Z,13.58
2018-03-30T17:14:47.686Z,13.52
2018-03-30T17:17:16.091Z,13.51
2018-03-30T17:19:44.795Z,13.49
2018-03-30T17:22:13.940Z,13.51
2018-03-30T17:24:42.331Z,13.54
2018-03-30T17:27:10.763Z,13.48
2018-03-30T17:29:39.135Z,13.46
2018-03-30T17:32:08.294Z,13.44
2018-03-30T17:34:36.640Z,13.44
2018-03-30T17:37:05.015Z,13.44
2018-03-30T17:39:33.452Z,13.46
2018-03-30T17:42:01.817Z,13.41
2018-03-30T17:44:30.180Z,13.40
2018-03-30T17:46:58.594Z,13.40
2018-03-30T17:49:26.935Z,13.39
2018-03-30T17:51:55.291Z,13.33
2018-03-30T17:54:23.670Z,13.31
2018-03-30T17:56:52.066Z,13.27
2018-03-30T17:59:20.426Z,13.21
2018-03-30T18:01:48.854Z,13.20
2018-03-30T18:04:18.024Z,13.19
2018-03-30T18:06:46.429Z,13.17
2018-03-30T18:09:15.586Z,13.13
2018-03-30T18:11:43.975Z,13.09
2018-03-30T18:14:12.383Z,13.05
2018-03-30T18:16:41.544Z,12.98
2018-03-30T18:19:09.917Z,12.93
2018-03-30T18:21:38.292Z,12.87
2018-03-30T18:24:06.695Z,12.83
2018-03-30T18:26:35.063Z,12.78
2018-03-30T18:29:03.448Z,12.70
2018-03-30T18:31:31.829Z,12.67
2018-03-30T18:34:00.209Z,12.67
2018-03-30T18:36:28.577Z,12.66
2018-03-30T18:38:56.988Z,12.63
2018-03-30T18:41:26.115Z,12.56
2018-03-30T18:43:54.562Z,12.54
2018-03-30T18:46:22.913Z,12.54
2018-03-30T18:48:51.279Z,12.52
2018-03-30T18:51:19.703Z,12.45
2018-03-30T18:53:48.066Z,12.45
2018-03-30T18:56:16.467Z,12.41
2018-03-30T18:58:45.123Z,12.43
2018-03-30T19:01:14.326Z,12.43
2018-03-30T19:03:42.666Z,12.49
2018-03-30T19:06:11.868Z,12.49
2018-03-30T19:08:40.500Z,12.48
2018-03-30T19:11:08.883Z,12.49
2018-03-30T19:13:37.253Z,12.48
2018-03-30T19:16:05.642Z,12.42
2018-03-30T19:18:34.006Z,12.37
2018-03-30T19:21:03.153Z,12.30
2018-03-30T19:23:32.262Z,12.25
2018-03-30T19:26:00.632Z,12.23
2018-03-30T19:28:29.011Z,12.19
2018-03-30T19:30:57.398Z,12.15
2018-03-30T19:33:25.791Z,12.13
2018-03-30T19:35:54.180Z,12.15
2018-03-30T19:38:23.310Z,12.12
2018-03-30T19:40:51.654Z,12.07
2018-03-30T19:43:20.795Z,12.05
2018-03-30T19:45:49.177Z,12.03
2018-03-30T19:48:17.518Z,11.99
2018-03-30T19:50:46.642Z,11.96
2018-03-30T19:53:15.014Z,11.94
2018-03-30T19:55:43.378Z,11.93
2018-03-30T19:58:11.764Z,11.88
2018-03-30T20:00:40.131Z,11.91
2018-03-30T20:03:08.519Z,11.90
2018-03-30T20:05:36.902Z,11.84
2018-03-30T20:08:05.299Z,11.85
2018-03-30T20:10:33.667Z,11.80
2018-03-30T20:13:02.062Z,11.82
2018-03-30T20:15:30.489Z,11.81
2018-03-30T20:17:59.643Z,11.80
2018-03-30T20:20:28.018Z,11.76
2018-03-30T20:22:56.404Z,11.76
2018-03-30T20:25:24.774Z,11.74
2018-03-30T20:27:53.123Z,11.70
2018-03-30T20:30:21.536Z,11.68
2018-03-30T20:32:49.910Z,11.68
2018-03-30T20:35:18.287Z,11.63
2018-03-30T20:37:46.703Z,11.60
2018-03-30T20:40:15.072Z,11.57
2018-03-30T20:42:44.225Z,11.52
2018-03-30T20:45:12.628Z,11.47
2018-03-30T20:47:40.982Z,11.42
2018-03-30T20:50:09.380Z,11.37
2018-03-30T20:52:37.751Z,11.33
2018-03-30T20:55:06.886Z,11.28
2018-03-30T20:57:36.039Z,11.24
2018-03-30T21:00:04.440Z,11.24
2018-03-30T21:02:32.807Z,11.16
2018-03-30T21:05:01.184Z,11.10
2018-03-30T21:07:29.564Z,11.04
2018-03-30T21:09:57.960Z,11.02
2018-03-30T21:12:26.336Z,10.95
2018-03-30T21:14:54.711Z,10.96
2018-03-30T21:17:23.063Z,10.89
2018-03-30T21:19:51.411Z,10.82
2018-03-30T21:22:19.800Z,10.75
2018-03-30T21:24:48.434Z,10.69
2018-03-30T21:27:17.619Z,10.62
2018-03-30T21:29:46.739Z,10.53
2018-03-30T21:32:15.124Z,10.54
2018-03-30T21:34:44.244Z,10.54
2018-03-30T21:37:12.668Z,10.53
2018-03-30T21:39:41.802Z,10.51
2018-03-30T21:42:10.945Z,10.51
2018-03-30T21:44:39.297Z,10.49
2018-03-30T21:47:08.520Z,10.48
2018-03-30T21:49:36.995Z,10.44
2018-03-30T21:52:05.351Z,10.46
2018-03-30T21:54:33.691Z,10.36
2018-03-30T21:57:02.818Z,10.33
2018-03-30T21:59:31.163Z,10.31
2018-03-30T22:02:00.303Z,10.25
2018-03-30T22:04:28.674Z,10.18
2018-03-30T22:06:57.050Z,10.16
2018-03-30T22:09:25.412Z,10.14
2018-03-30T22:11:53.750Z,10.14
2018-03-30T22:14:22.179Z,10.14
2018-03-30T22:16:50.558Z,10.08
2018-03-30T22:19:18.930Z,9.99
2018-03-30T22:21:47.592Z,9.96
2018-03-30T22:24:16.715Z,9.94
2018-03-30T22:26:45.052Z,9.84
2018-03-30T22:29:13.438Z,9.78
2018-03-30T22:31:42.557Z,9.75
2018-03-30T22:34:10.923Z,9.70
2018-03-30T22:36:39.322Z,9.68
2018-03-30T22:39:07.684Z,9.68
2018-03-30T22:41:36.842Z,9.67
2018-03-30T22:44:05.198Z,9.65
2018-03-30T22:46:33.537Z,9.63
2018-03-30T22:49:01.927Z,9.64
2018-03-30T22:51:30.274Z,9.64
2018-03-30T22:53:58.595Z,9.62
2018-03-30T22:56:26.962Z,9.64
2018-03-30T22:58:55.353Z,9.62
2018-03-30T23:01:23.712Z,9.58
2018-03-30T23:03:52.840Z,9.59
2018-03-30T23:06:21.626Z,9.60
2018-03-30T23:08:50.754Z,9.57
2018-03-30T23:11:19.891Z,9.56
2018-03-30T23:13:48.222Z,9.51
2018-03-30T23:16:16.606Z,9.47
2018-03-30T23:18:45.719Z,9.50
2018-03-30T23:21:14.847Z,9.55
2018-03-30T23:23:43.207Z,9.55
2018-03-30T23:26:11.578Z,9.57
2018-03-30T23:28:39.909Z,9.56
2018-03-30T23:31:08.371Z,9.53
2018-03-30T23:33:36.694Z,9.50
2018-03-30T23:36:06.003Z,9.48
2018-03-30T23:38:34.374Z,9.44
2018-03-30T23:41:03.495Z,9.40
2018-03-30T23:43:31.878Z,9.34
2018-03-30T23:46:00.614Z,9.31
2018-03-30T23:48:28.946Z,9.27
2018-03-30T23:50:57.313Z,9.22
2018-03-30T23:53:25.673Z,8.94
2018-03-30T23:55:54.029Z,8.85
2018-03-30T23:58:22.386Z,8.87
